sensor_id;sensor_type;location;lat;lon;timestamp;temperature;humidity
10294;DHT22;5192;50.328;7.610;2022-08-21T00:00:23;15.10;99.90
10294;DHT22;5192;50.328;7.610;2022-08-21T00:03:00;15.20;99.90
10294;DHT22;5192;50.328;7.610;2022-08-21T00:05:30;15.10;99.90
10294;DHT22;5192;50.328;7.610;2022-08-21T00:07:57;15.10;99.90
10294;DHT22;5192;50.328;7.610;2022-08-21T00:10:26;15.10;99.90
10294;DHT22;5192;50.328;7.610;2022-08-21T00:12:54;15.10;99.90
10294;DHT22;5192;50.328;7.610;2022-08-21T00:15:30;15.10;99.90
10294;DHT22;5192;50.328;7.610;2022-08-21T00:17:57;15.00;99.90
10294;DHT22;5192;50.328;7.610;2022-08-21T00:20:25;15.00;99.90
10294;DHT22;5192;50.328;7.610;2022-08-21T00:22:52;15.00;99.90
10294;DHT22;5192;50.328;7.610;2022-08-21T00:25:28;15.00;99.90
10294;DHT22;5192;50.328;7.610;2022-08-21T00:27:55;15.00;99.90
10294;DHT22;5192;50.328;7.610;2022-08-21T00:30:22;15.00;99.90
10294;DHT22;5192;50.328;7.610;2022-08-21T00:32:51;14.90;99.90
10294;DHT22;5192;50.328;7.610;2022-08-21T00:35:22;14.90;99.90
10294;DHT22;5192;50.328;7.610;2022-08-21T00:37:49;14.80;99.90
10294;DHT22;5192;50.328;7.610;2022-08-21T00:40:20;14.80;99.90
10294;DHT22;5192;50.328;7.610;2022-08-21T00:42:48;14.80;99.90
10294;DHT22;5192;50.328;7.610;2022-08-21T00:45:18;14.80;99.90
10294;DHT22;5192;50.328;7.610;2022-08-21T00:47:46;14.80;99.90
10294;DHT22;5192;50.328;7.610;2022-08-21T00:50:13;14.70;99.90
10294;DHT22;5192;50.328;7.610;2022-08-21T00:52:41;14.70;99.90
10294;DHT22;5192;50.328;7.610;2022-08-21T00:55:08;14.70;99.90
10294;DHT22;5192;50.328;7.610;2022-08-21T00:57:44;14.60;99.90
10294;DHT22;5192;50.328;7.610;2022-08-21T01:00:18;14.60;99.90
10294;DHT22;5192;50.328;7.610;2022-08-21T01:02:56;14.70;99.90
10294;DHT22;5192;50.328;7.610;2022-08-21T01:05:22;14.70;99.90
10294;DHT22;5192;50.328;7.610;2022-08-21T01:07:49;14.60;99.90
10294;DHT22;5192;50.328;7.610;2022-08-21T01:10:17;14.60;99.90
10294;DHT22;5192;50.328;7.610;2022-08-21T01:12:47;14.60;99.90
10294;DHT22;5192;50.328;7.610;2022-08-21T01:15:14;14.50;99.90
10294;DHT22;5192;50.328;7.610;2022-08-21T01:17:42;14.50;99.90
10294;DHT22;5192;50.328;7.610;2022-08-21T01:20:11;14.50;99.90
10294;DHT22;5192;50.328;7.610;2022-08-21T01:22:38;14.40;99.90
10294;DHT22;5192;50.328;7.610;2022-08-21T01:25:08;14.40;99.90
10294;DHT22;5192;50.328;7.610;2022-08-21T01:27:38;14.30;99.90
10294;DHT22;5192;50.328;7.610;2022-08-21T01:30:11;14.30;99.90
10294;DHT22;5192;50.328;7.610;2022-08-21T01:32:47;14.30;99.90
10294;DHT22;5192;50.328;7.610;2022-08-21T01:35:26;14.20;99.90
10294;DHT22;5192;50.328;7.610;2022-08-21T01:37:53;14.20;99.90
10294;DHT22;5192;50.328;7.610;2022-08-21T01:40:21;14.20;99.90
10294;DHT22;5192;50.328;7.610;2022-08-21T01:42:47;14.10;99.90
10294;DHT22;5192;50.328;7.610;2022-08-21T01:45:16;14.10;99.90
10294;DHT22;5192;50.328;7.610;2022-08-21T01:47:43;14.10;99.90
10294;DHT22;5192;50.328;7.610;2022-08-21T01:50:13;14.00;99.90
10294;DHT22;5192;50.328;7.610;2022-08-21T01:52:40;14.00;99.90
10294;DHT22;5192;50.328;7.610;2022-08-21T01:55:20;14.00;99.90
10294;DHT22;5192;50.328;7.610;2022-08-21T01:57:53;14.00;99.90
10294;DHT22;5192;50.328;7.610;2022-08-21T02:00:23;14.00;99.90
10294;DHT22;5192;50.328;7.610;2022-08-21T02:02:50;14.00;99.90
10294;DHT22;5192;50.328;7.610;2022-08-21T02:05:18;13.90;99.90
10294;DHT22;5192;50.328;7.610;2022-08-21T02:07:49;13.90;99.90
10294;DHT22;5192;50.328;7.610;2022-08-21T02:10:21;13.90;99.90
10294;DHT22;5192;50.328;7.610;2022-08-21T02:12:49;13.80;99.90
10294;DHT22;5192;50.328;7.610;2022-08-21T02:15:16;13.80;99.90
10294;DHT22;5192;50.328;7.610;2022-08-21T02:17:44;13.70;99.90
10294;DHT22;5192;50.328;7.610;2022-08-21T02:20:23;13.70;99.90
10294;DHT22;5192;50.328;7.610;2022-08-21T02:22:51;13.70;99.90
10294;DHT22;5192;50.328;7.610;2022-08-21T02:25:20;13.70;99.90
10294;DHT22;5192;50.328;7.610;2022-08-21T02:27:48;13.60;99.90
10294;DHT22;5192;50.328;7.610;2022-08-21T02:30:27;13.60;99.90
10294;DHT22;5192;50.328;7.610;2022-08-21T02:32:53;13.60;99.90
10294;DHT22;5192;50.328;7.610;2022-08-21T02:35:21;13.60;99.90
10294;DHT22;5192;50.328;7.610;2022-08-21T02:38:13;13.60;99.90
10294;DHT22;5192;50.328;7.610;2022-08-21T02:40:43;13.50;99.90
10294;DHT22;5192;50.328;7.610;2022-08-21T02:43:12;13.50;99.90
10294;DHT22;5192;50.328;7.610;2022-08-21T02:45:40;13.50;99.90
10294;DHT22;5192;50.328;7.610;2022-08-21T02:48:13;13.40;99.90
10294;DHT22;5192;50.328;7.610;2022-08-21T02:50:48;13.40;99.90
10294;DHT22;5192;50.328;7.610;2022-08-21T02:53:18;13.40;99.90
10294;DHT22;5192;50.328;7.610;2022-08-21T02:55:59;13.40;99.90
10294;DHT22;5192;50.328;7.610;2022-08-21T02:58:37;13.40;99.90
10294;DHT22;5192;50.328;7.610;2022-08-21T03:01:07;13.30;99.90
10294;DHT22;5192;50.328;7.610;2022-08-21T03:03:36;13.30;99.90
10294;DHT22;5192;50.328;7.610;2022-08-21T03:06:14;13.20;99.90
10294;DHT22;5192;50.328;7.610;2022-08-21T03:08:40;13.20;99.90
10294;DHT22;5192;50.328;7.610;2022-08-21T03:11:12;13.20;99.90
10294;DHT22;5192;50.328;7.610;2022-08-21T03:13:38;13.20;99.90
10294;DHT22;5192;50.328;7.610;2022-08-21T03:16:07;13.10;99.90
10294;DHT22;5192;50.328;7.610;2022-08-21T03:18:38;13.10;99.90
10294;DHT22;5192;50.328;7.610;2022-08-21T03:21:05;13.10;99.90
10294;DHT22;5192;50.328;7.610;2022-08-21T03:23:32;13.10;99.90
10294;DHT22;5192;50.328;7.610;2022-08-21T03:26:00;13.10;99.90
10294;DHT22;5192;50.328;7.610;2022-08-21T03:28:26;13.00;99.90
10294;DHT22;5192;50.328;7.610;2022-08-21T03:30:52;13.00;99.90
10294;DHT22;5192;50.328;7.610;2022-08-21T03:33:20;13.00;99.90
10294;DHT22;5192;50.328;7.610;2022-08-21T03:35:55;13.00;99.90
10294;DHT22;5192;50.328;7.610;2022-08-21T03:38:22;12.90;99.90
10294;DHT22;5192;50.328;7.610;2022-08-21T03:40:49;12.80;99.90
10294;DHT22;5192;50.328;7.610;2022-08-21T03:43:18;12.90;99.90
10294;DHT22;5192;50.328;7.610;2022-08-21T03:45:47;12.80;99.90
10294;DHT22;5192;50.328;7.610;2022-08-21T03:48:17;12.70;99.90
10294;DHT22;5192;50.328;7.610;2022-08-21T03:50:47;12.70;99.90
10294;DHT22;5192;50.328;7.610;2022-08-21T03:53:19;12.60;99.90
10294;DHT22;5192;50.328;7.610;2022-08-21T03:55:48;12.60;99.90
10294;DHT22;5192;50.328;7.610;2022-08-21T03:58:19;12.50;99.90
10294;DHT22;5192;50.328;7.610;2022-08-21T04:00:50;12.50;99.90
10294;DHT22;5192;50.328;7.610;2022-08-21T04:03:19;12.50;99.90
10294;DHT22;5192;50.328;7.610;2022-08-21T04:05:49;12.50;99.90
10294;DHT22;5192;50.328;7.610;2022-08-21T04:08:17;12.60;99.90
10294;DHT22;5192;50.328;7.610;2022-08-21T04:10:57;12.60;99.90
10294;DHT22;5192;50.328;7.610;2022-08-21T04:13:27;12.60;99.90
10294;DHT22;5192;50.328;7.610;2022-08-21T04:15:54;12.60;99.90
10294;DHT22;5192;50.328;7.610;2022-08-21T04:18:21;12.60;99.90
10294;DHT22;5192;50.328;7.610;2022-08-21T04:20:49;12.60;99.90
10294;DHT22;5192;50.328;7.610;2022-08-21T04:23:21;12.50;99.90
10294;DHT22;5192;50.328;7.610;2022-08-21T04:25:48;12.50;99.90
10294;DHT22;5192;50.328;7.610;2022-08-21T04:28:14;12.50;99.90
10294;DHT22;5192;50.328;7.610;2022-08-21T04:30:46;12.50;99.90
10294;DHT22;5192;50.328;7.610;2022-08-21T04:33:13;12.50;99.90
10294;DHT22;5192;50.328;7.610;2022-08-21T04:35:52;12.40;99.90
10294;DHT22;5192;50.328;7.610;2022-08-21T04:38:19;12.40;99.90
10294;DHT22;5192;50.328;7.610;2022-08-21T04:40:46;12.50;99.90
10294;DHT22;5192;50.328;7.610;2022-08-21T04:43:15;12.40;99.90
10294;DHT22;5192;50.328;7.610;2022-08-21T04:45:44;12.40;99.90
10294;DHT22;5192;50.328;7.610;2022-08-21T04:48:13;12.40;99.90
10294;DHT22;5192;50.328;7.610;2022-08-21T04:51:01;12.40;99.90
10294;DHT22;5192;50.328;7.610;2022-08-21T04:56:43;12.40;99.90
10294;DHT22;5192;50.328;7.610;2022-08-21T04:59:35;12.40;99.90
10294;DHT22;5192;50.328;7.610;2022-08-21T05:02:10;12.40;99.90
10294;DHT22;5192;50.328;7.610;2022-08-21T05:04:45;12.40;99.90
10294;DHT22;5192;50.328;7.610;2022-08-21T05:07:42;12.40;99.90
10294;DHT22;5192;50.328;7.610;2022-08-21T05:10:22;12.40;99.90
10294;DHT22;5192;50.328;7.610;2022-08-21T05:12:52;12.40;99.90
10294;DHT22;5192;50.328;7.610;2022-08-21T05:15:20;12.50;99.90
10294;DHT22;5192;50.328;7.610;2022-08-21T05:17:49;12.50;99.90
10294;DHT22;5192;50.328;7.610;2022-08-21T05:20:19;12.50;99.90
10294;DHT22;5192;50.328;7.610;2022-08-21T05:22:53;12.60;99.90
10294;DHT22;5192;50.328;7.610;2022-08-21T05:25:20;12.60;99.90
10294;DHT22;5192;50.328;7.610;2022-08-21T05:28:09;12.60;99.90
10294;DHT22;5192;50.328;7.610;2022-08-21T05:30:42;12.60;99.90
10294;DHT22;5192;50.328;7.610;2022-08-21T05:33:12;12.60;99.90
10294;DHT22;5192;50.328;7.610;2022-08-21T05:35:42;12.70;99.90
10294;DHT22;5192;50.328;7.610;2022-08-21T05:38:13;12.70;99.90
10294;DHT22;5192;50.328;7.610;2022-08-21T05:40:42;12.70;99.90
10294;DHT22;5192;50.328;7.610;2022-08-21T05:43:12;12.80;99.90
10294;DHT22;5192;50.328;7.610;2022-08-21T05:45:41;12.80;99.90
10294;DHT22;5192;50.328;7.610;2022-08-21T05:48:33;12.80;99.90
10294;DHT22;5192;50.328;7.610;2022-08-21T05:51:31;12.80;99.90
10294;DHT22;5192;50.328;7.610;2022-08-21T05:54:03;12.80;99.90
10294;DHT22;5192;50.328;7.610;2022-08-21T05:56:29;12.90;99.90
10294;DHT22;5192;50.328;7.610;2022-08-21T05:59:01;12.90;99.90
10294;DHT22;5192;50.328;7.610;2022-08-21T06:01:29;13.00;99.90
10294;DHT22;5192;50.328;7.610;2022-08-21T06:04:02;13.00;99.90
10294;DHT22;5192;50.328;7.610;2022-08-21T06:06:30;13.10;99.90
10294;DHT22;5192;50.328;7.610;2022-08-21T06:08:59;13.10;99.90
10294;DHT22;5192;50.328;7.610;2022-08-21T06:11:31;13.20;99.90
10294;DHT22;5192;50.328;7.610;2022-08-21T06:14:02;13.30;99.90
10294;DHT22;5192;50.328;7.610;2022-08-21T06:16:50;13.30;99.90
10294;DHT22;5192;50.328;7.610;2022-08-21T06:19:19;13.40;99.90
10294;DHT22;5192;50.328;7.610;2022-08-21T06:21:52;13.50;99.90
10294;DHT22;5192;50.328;7.610;2022-08-21T06:24:20;13.50;99.90
10294;DHT22;5192;50.328;7.610;2022-08-21T06:26:52;13.60;99.90
10294;DHT22;5192;50.328;7.610;2022-08-21T06:29:21;13.70;99.90
10294;DHT22;5192;50.328;7.610;2022-08-21T06:31:51;13.70;99.90
10294;DHT22;5192;50.328;7.610;2022-08-21T06:34:23;13.80;99.90
10294;DHT22;5192;50.328;7.610;2022-08-21T06:36:52;13.90;99.90
10294;DHT22;5192;50.328;7.610;2022-08-21T06:39:41;14.00;99.90
10294;DHT22;5192;50.328;7.610;2022-08-21T06:42:23;14.10;99.90
10294;DHT22;5192;50.328;7.610;2022-08-21T06:45:01;14.20;99.90
10294;DHT22;5192;50.328;7.610;2022-08-21T06:47:30;14.30;99.90
10294;DHT22;5192;50.328;7.610;2022-08-21T06:50:01;14.40;99.90
10294;DHT22;5192;50.328;7.610;2022-08-21T06:52:32;14.50;99.90
10294;DHT22;5192;50.328;7.610;2022-08-21T06:55:02;14.60;99.90
10294;DHT22;5192;50.328;7.610;2022-08-21T06:57:31;14.70;99.90
10294;DHT22;5192;50.328;7.610;2022-08-21T06:59:59;14.80;99.90
10294;DHT22;5192;50.328;7.610;2022-08-21T07:02:30;14.90;99.90
10294;DHT22;5192;50.328;7.610;2022-08-21T07:04:59;15.00;99.90
10294;DHT22;5192;50.328;7.610;2022-08-21T07:07:29;15.10;99.90
10294;DHT22;5192;50.328;7.610;2022-08-21T07:10:02;15.10;99.90
10294;DHT22;5192;50.328;7.610;2022-08-21T07:12:32;15.30;99.90
10294;DHT22;5192;50.328;7.610;2022-08-21T07:15:09;15.40;99.90
10294;DHT22;5192;50.328;7.610;2022-08-21T07:17:41;15.50;99.90
10294;DHT22;5192;50.328;7.610;2022-08-21T07:20:11;15.70;99.90
10294;DHT22;5192;50.328;7.610;2022-08-21T07:22:42;15.80;99.90
10294;DHT22;5192;50.328;7.610;2022-08-21T07:25:12;15.90;99.90
10294;DHT22;5192;50.328;7.610;2022-08-21T07:27:43;16.00;99.90
10294;DHT22;5192;50.328;7.610;2022-08-21T07:30:11;16.10;99.90
10294;DHT22;5192;50.328;7.610;2022-08-21T07:32:42;16.20;99.90
10294;DHT22;5192;50.328;7.610;2022-08-21T07:35:10;16.30;99.90
10294;DHT22;5192;50.328;7.610;2022-08-21T07:37:41;16.40;99.90
10294;DHT22;5192;50.328;7.610;2022-08-21T07:40:11;16.60;99.90
10294;DHT22;5192;50.328;7.610;2022-08-21T07:43:00;16.70;99.90
10294;DHT22;5192;50.328;7.610;2022-08-21T07:45:29;16.90;99.90
10294;DHT22;5192;50.328;7.610;2022-08-21T07:48:04;17.00;99.90
10294;DHT22;5192;50.328;7.610;2022-08-21T07:50:53;17.10;99.90
10294;DHT22;5192;50.328;7.610;2022-08-21T07:53:22;17.20;99.90
10294;DHT22;5192;50.328;7.610;2022-08-21T07:55:52;17.30;99.90
10294;DHT22;5192;50.328;7.610;2022-08-21T07:58:23;17.50;99.90
10294;DHT22;5192;50.328;7.610;2022-08-21T08:00:50;17.60;99.90
10294;DHT22;5192;50.328;7.610;2022-08-21T08:03:22;17.70;99.90
10294;DHT22;5192;50.328;7.610;2022-08-21T08:05:50;17.80;99.90
10294;DHT22;5192;50.328;7.610;2022-08-21T08:08:21;17.90;99.90
10294;DHT22;5192;50.328;7.610;2022-08-21T08:10:52;18.10;99.90
10294;DHT22;5192;50.328;7.610;2022-08-21T08:13:24;18.20;99.90
10294;DHT22;5192;50.328;7.610;2022-08-21T08:15:51;18.40;99.90
10294;DHT22;5192;50.328;7.610;2022-08-21T08:18:21;18.50;99.90
10294;DHT22;5192;50.328;7.610;2022-08-21T08:20:51;18.60;99.90
10294;DHT22;5192;50.328;7.610;2022-08-21T08:23:20;18.80;99.90
10294;DHT22;5192;50.328;7.610;2022-08-21T08:25:53;19.00;99.90
10294;DHT22;5192;50.328;7.610;2022-08-21T08:28:23;19.10;99.90
10294;DHT22;5192;50.328;7.610;2022-08-21T08:30:53;19.20;99.90
10294;DHT22;5192;50.328;7.610;2022-08-21T08:33:22;19.30;99.90
10294;DHT22;5192;50.328;7.610;2022-08-21T08:35:50;19.40;99.90
10294;DHT22;5192;50.328;7.610;2022-08-21T08:38:43;19.60;99.90
10294;DHT22;5192;50.328;7.610;2022-08-21T08:41:29;19.70;93.30
10294;DHT22;5192;50.328;7.610;2022-08-21T08:44:12;19.80;96.90
10294;DHT22;5192;50.328;7.610;2022-08-21T08:46:44;20.00;97.80
10294;DHT22;5192;50.328;7.610;2022-08-21T08:52:45;20.20;82.70
10294;DHT22;5192;50.328;7.610;2022-08-21T08:55:43;20.30;88.10
10294;DHT22;5192;50.328;7.610;2022-08-21T08:58:31;20.50;74.90
10294;DHT22;5192;50.328;7.610;2022-08-21T09:01:21;20.60;53.90
10294;DHT22;5192;50.328;7.610;2022-08-21T09:03:51;20.80;51.40
10294;DHT22;5192;50.328;7.610;2022-08-21T09:06:55;20.80;45.40
10294;DHT22;5192;50.328;7.610;2022-08-21T09:13:30;20.90;17.50
10294;DHT22;5192;50.328;7.610;2022-08-21T09:25:32;21.50;1.00
10294;DHT22;5192;50.328;7.610;2022-08-21T09:28:11;21.70;1.00
10294;DHT22;5192;50.328;7.610;2022-08-21T09:31:25;21.70;1.00
10294;DHT22;5192;50.328;7.610;2022-08-21T09:34:11;21.80;1.00
10294;DHT22;5192;50.328;7.610;2022-08-21T09:36:52;21.90;1.00
10294;DHT22;5192;50.328;7.610;2022-08-21T09:39:43;22.00;1.00
10294;DHT22;5192;50.328;7.610;2022-08-21T09:42:10;22.10;1.00
10294;DHT22;5192;50.328;7.610;2022-08-21T09:44:41;22.20;1.00
10294;DHT22;5192;50.328;7.610;2022-08-21T09:47:13;22.40;1.00
10294;DHT22;5192;50.328;7.610;2022-08-21T09:49:53;22.60;1.00
10294;DHT22;5192;50.328;7.610;2022-08-21T09:52:33;22.70;1.00
10294;DHT22;5192;50.328;7.610;2022-08-21T09:54:59;22.70;1.00
10294;DHT22;5192;50.328;7.610;2022-08-21T09:57:32;22.80;1.00
10294;DHT22;5192;50.328;7.610;2022-08-21T10:00:33;22.80;1.00
10294;DHT22;5192;50.328;7.610;2022-08-21T10:03:18;22.60;1.00
10294;DHT22;5192;50.328;7.610;2022-08-21T10:06:39;22.50;1.00
10294;DHT22;5192;50.328;7.610;2022-08-21T10:09:21;22.70;1.00
10294;DHT22;5192;50.328;7.610;2022-08-21T10:12:23;22.90;1.00
10294;DHT22;5192;50.328;7.610;2022-08-21T10:16:10;23.20;1.00
10294;DHT22;5192;50.328;7.610;2022-08-21T10:21:16;23.40;1.00
10294;DHT22;5192;50.328;7.610;2022-08-21T10:36:04;24.10;1.00
10294;DHT22;5192;50.328;7.610;2022-08-21T10:39:34;24.00;1.00
10294;DHT22;5192;50.328;7.610;2022-08-21T10:42:31;24.10;1.00
10294;DHT22;5192;50.328;7.610;2022-08-21T10:48:35;24.10;1.00
10294;DHT22;5192;50.328;7.610;2022-08-21T10:54:45;24.40;1.00
10294;DHT22;5192;50.328;7.610;2022-08-21T10:57:41;24.70;1.00
10294;DHT22;5192;50.328;7.610;2022-08-21T11:00:28;24.80;1.00
10294;DHT22;5192;50.328;7.610;2022-08-21T11:03:27;24.90;1.00
10294;DHT22;5192;50.328;7.610;2022-08-21T11:06:34;25.00;1.00
10294;DHT22;5192;50.328;7.610;2022-08-21T11:09:22;25.10;1.00
10294;DHT22;5192;50.328;7.610;2022-08-21T11:12:25;25.40;1.00
10294;DHT22;5192;50.328;7.610;2022-08-21T11:15:33;25.40;1.00
10294;DHT22;5192;50.328;7.610;2022-08-21T11:27:27;25.70;1.00
10294;DHT22;5192;50.328;7.610;2022-08-21T11:30:02;25.90;1.00
10294;DHT22;5192;50.328;7.610;2022-08-21T11:35:57;25.80;1.00
10294;DHT22;5192;50.328;7.610;2022-08-21T11:41:42;26.30;1.00
10294;DHT22;5192;50.328;7.610;2022-08-21T11:47:56;26.80;1.00
10294;DHT22;5192;50.328;7.610;2022-08-21T11:50:42;26.90;1.00
10294;DHT22;5192;50.328;7.610;2022-08-21T11:53:13;26.90;1.00
10294;DHT22;5192;50.328;7.610;2022-08-21T11:59:07;27.60;1.00
10294;DHT22;5192;50.328;7.610;2022-08-21T12:01:44;27.60;1.00
10294;DHT22;5192;50.328;7.610;2022-08-21T12:05:26;27.60;1.00
10294;DHT22;5192;50.328;7.610;2022-08-21T12:07:59;27.60;1.00
10294;DHT22;5192;50.328;7.610;2022-08-21T12:10:37;27.70;1.00
10294;DHT22;5192;50.328;7.610;2022-08-21T12:13:35;27.70;1.00
10294;DHT22;5192;50.328;7.610;2022-08-21T12:16:12;27.80;1.00
10294;DHT22;5192;50.328;7.610;2022-08-21T12:18:41;28.20;1.00
10294;DHT22;5192;50.328;7.610;2022-08-21T12:21:26;28.20;1.00
10294;DHT22;5192;50.328;7.610;2022-08-21T12:24:16;28.20;1.00
10294;DHT22;5192;50.328;7.610;2022-08-21T12:29:32;28.60;1.00
10294;DHT22;5192;50.328;7.610;2022-08-21T12:32:26;28.60;1.00
10294;DHT22;5192;50.328;7.610;2022-08-21T12:35:04;28.80;1.00
10294;DHT22;5192;50.328;7.610;2022-08-21T12:37:50;28.90;1.00
10294;DHT22;5192;50.328;7.610;2022-08-21T12:40:58;29.10;1.00
10294;DHT22;5192;50.328;7.610;2022-08-21T12:43:38;29.10;1.00
10294;DHT22;5192;50.328;7.610;2022-08-21T12:46:14;29.20;1.00
10294;DHT22;5192;50.328;7.610;2022-08-21T12:48:56;28.90;1.00
10294;DHT22;5192;50.328;7.610;2022-08-21T12:51:32;28.60;1.00
10294;DHT22;5192;50.328;7.610;2022-08-21T12:54:01;28.30;1.00
10294;DHT22;5192;50.328;7.610;2022-08-21T12:56:32;28.30;1.00
10294;DHT22;5192;50.328;7.610;2022-08-21T12:59:07;28.40;1.00
10294;DHT22;5192;50.328;7.610;2022-08-21T13:01:57;28.40;1.00
10294;DHT22;5192;50.328;7.610;2022-08-21T13:04:39;28.60;1.00
10294;DHT22;5192;50.328;7.610;2022-08-21T13:07:22;28.80;1.00
10294;DHT22;5192;50.328;7.610;2022-08-21T13:09:59;29.00;1.00
10294;DHT22;5192;50.328;7.610;2022-08-21T13:12:42;29.00;1.00
10294;DHT22;5192;50.328;7.610;2022-08-21T13:15:09;28.90;1.00
10294;DHT22;5192;50.328;7.610;2022-08-21T13:17:40;28.90;1.00
10294;DHT22;5192;50.328;7.610;2022-08-21T13:20:10;28.90;1.00
10294;DHT22;5192;50.328;7.610;2022-08-21T13:22:45;28.80;1.00
10294;DHT22;5192;50.328;7.610;2022-08-21T13:25:14;28.70;1.00
10294;DHT22;5192;50.328;7.610;2022-08-21T13:27:55;28.80;1.00
10294;DHT22;5192;50.328;7.610;2022-08-21T13:30:23;28.90;1.00
10294;DHT22;5192;50.328;7.610;2022-08-21T13:32:54;29.10;1.00
10294;DHT22;5192;50.328;7.610;2022-08-21T13:36:03;29.20;1.00
10294;DHT22;5192;50.328;7.610;2022-08-21T13:38:33;28.90;1.00
10294;DHT22;5192;50.328;7.610;2022-08-21T13:41:24;29.30;1.00
10294;DHT22;5192;50.328;7.610;2022-08-21T13:44:35;29.40;1.00
10294;DHT22;5192;50.328;7.610;2022-08-21T13:47:12;29.70;1.00
10294;DHT22;5192;50.328;7.610;2022-08-21T13:49:48;29.60;1.00
10294;DHT22;5192;50.328;7.610;2022-08-21T13:53:03;29.70;1.00
10294;DHT22;5192;50.328;7.610;2022-08-21T13:56:04;30.20;1.00
10294;DHT22;5192;50.328;7.610;2022-08-21T13:58:52;31.10;1.00
10294;DHT22;5192;50.328;7.610;2022-08-21T14:07:41;32.60;1.00
10294;DHT22;5192;50.328;7.610;2022-08-21T14:10:15;33.20;1.00
10294;DHT22;5192;50.328;7.610;2022-08-21T14:16:43;34.40;1.00
10294;DHT22;5192;50.328;7.610;2022-08-21T14:19:23;35.00;1.00
10294;DHT22;5192;50.328;7.610;2022-08-21T14:21:52;35.60;1.00
10294;DHT22;5192;50.328;7.610;2022-08-21T14:24:39;36.00;1.00
10294;DHT22;5192;50.328;7.610;2022-08-21T14:27:11;35.80;1.00
10294;DHT22;5192;50.328;7.610;2022-08-21T14:30:22;35.80;1.00
10294;DHT22;5192;50.328;7.610;2022-08-21T14:33:34;36.10;1.00
10294;DHT22;5192;50.328;7.610;2022-08-21T14:36:01;35.40;1.00
10294;DHT22;5192;50.328;7.610;2022-08-21T14:38:30;35.10;1.00
10294;DHT22;5192;50.328;7.610;2022-08-21T14:41:05;33.40;1.00
10294;DHT22;5192;50.328;7.610;2022-08-21T14:43:34;33.80;1.00
10294;DHT22;5192;50.328;7.610;2022-08-21T14:46:00;34.20;1.00
10294;DHT22;5192;50.328;7.610;2022-08-21T14:48:26;32.90;1.00
10294;DHT22;5192;50.328;7.610;2022-08-21T14:50:53;33.60;1.00
10294;DHT22;5192;50.328;7.610;2022-08-21T14:53:19;34.40;1.00
10294;DHT22;5192;50.328;7.610;2022-08-21T14:55:50;35.00;1.00
10294;DHT22;5192;50.328;7.610;2022-08-21T14:58:50;35.70;1.00
10294;DHT22;5192;50.328;7.610;2022-08-21T15:01:19;35.80;1.00
10294;DHT22;5192;50.328;7.610;2022-08-21T15:03:49;35.60;1.00
10294;DHT22;5192;50.328;7.610;2022-08-21T15:06:17;35.50;1.00
10294;DHT22;5192;50.328;7.610;2022-08-21T15:08:43;35.30;1.00
10294;DHT22;5192;50.328;7.610;2022-08-21T15:11:16;35.20;1.00
10294;DHT22;5192;50.328;7.610;2022-08-21T15:13:43;34.70;1.00
10294;DHT22;5192;50.328;7.610;2022-08-21T15:16:12;34.20;1.00
10294;DHT22;5192;50.328;7.610;2022-08-21T15:18:41;33.80;1.00
10294;DHT22;5192;50.328;7.610;2022-08-21T15:21:08;34.00;1.00
10294;DHT22;5192;50.328;7.610;2022-08-21T15:23:43;33.50;1.00
10294;DHT22;5192;50.328;7.610;2022-08-21T15:26:09;33.10;1.00
10294;DHT22;5192;50.328;7.610;2022-08-21T15:28:35;32.80;1.00
10294;DHT22;5192;50.328;7.610;2022-08-21T15:31:09;32.50;1.00
10294;DHT22;5192;50.328;7.610;2022-08-21T15:33:36;32.20;1.00
10294;DHT22;5192;50.328;7.610;2022-08-21T15:36:04;32.10;1.00
10294;DHT22;5192;50.328;7.610;2022-08-21T15:38:30;31.60;1.00
10294;DHT22;5192;50.328;7.610;2022-08-21T15:41:01;31.50;1.00
10294;DHT22;5192;50.328;7.610;2022-08-21T15:43:50;31.20;1.00
10294;DHT22;5192;50.328;7.610;2022-08-21T15:46:19;31.10;1.00
10294;DHT22;5192;50.328;7.610;2022-08-21T15:48:45;31.00;1.00
10294;DHT22;5192;50.328;7.610;2022-08-21T15:51:17;30.80;1.00
10294;DHT22;5192;50.328;7.610;2022-08-21T15:53:44;30.70;1.00
10294;DHT22;5192;50.328;7.610;2022-08-21T15:56:22;30.70;1.00
10294;DHT22;5192;50.328;7.610;2022-08-21T15:58:58;30.60;1.00
10294;DHT22;5192;50.328;7.610;2022-08-21T16:01:28;30.60;1.00
10294;DHT22;5192;50.328;7.610;2022-08-21T16:03:54;30.60;1.00
10294;DHT22;5192;50.328;7.610;2022-08-21T16:06:26;30.60;1.00
10294;DHT22;5192;50.328;7.610;2022-08-21T16:08:52;30.60;1.00
10294;DHT22;5192;50.328;7.610;2022-08-21T16:11:18;30.80;1.00
10294;DHT22;5192;50.328;7.610;2022-08-21T16:13:46;30.80;1.00
10294;DHT22;5192;50.328;7.610;2022-08-21T16:16:17;31.00;1.00
10294;DHT22;5192;50.328;7.610;2022-08-21T16:18:49;31.20;1.00
10294;DHT22;5192;50.328;7.610;2022-08-21T16:21:16;31.20;1.00
10294;DHT22;5192;50.328;7.610;2022-08-21T16:23:42;31.20;1.00
10294;DHT22;5192;50.328;7.610;2022-08-21T16:26:11;31.10;1.00
10294;DHT22;5192;50.328;7.610;2022-08-21T16:28:41;31.00;1.00
10294;DHT22;5192;50.328;7.610;2022-08-21T16:31:09;30.80;1.00
10294;DHT22;5192;50.328;7.610;2022-08-21T16:33:39;30.50;1.00
10294;DHT22;5192;50.328;7.610;2022-08-21T16:36:07;30.00;1.00
10294;DHT22;5192;50.328;7.610;2022-08-21T16:38:37;29.70;1.00
10294;DHT22;5192;50.328;7.610;2022-08-21T16:41:11;29.60;1.00
10294;DHT22;5192;50.328;7.610;2022-08-21T16:43:48;29.40;1.00
10294;DHT22;5192;50.328;7.610;2022-08-21T16:46:18;29.30;1.00
10294;DHT22;5192;50.328;7.610;2022-08-21T16:48:46;29.20;1.00
10294;DHT22;5192;50.328;7.610;2022-08-21T16:51:14;29.10;1.00
10294;DHT22;5192;50.328;7.610;2022-08-21T16:53:41;29.00;1.00
10294;DHT22;5192;50.328;7.610;2022-08-21T16:56:12;28.80;1.00
10294;DHT22;5192;50.328;7.610;2022-08-21T16:58:42;28.70;1.00
10294;DHT22;5192;50.328;7.610;2022-08-21T17:01:12;28.40;1.00
10294;DHT22;5192;50.328;7.610;2022-08-21T17:03:46;28.20;1.00
10294;DHT22;5192;50.328;7.610;2022-08-21T17:06:16;28.20;1.00
10294;DHT22;5192;50.328;7.610;2022-08-21T17:08:44;27.90;1.00
10294;DHT22;5192;50.328;7.610;2022-08-21T17:11:32;27.70;1.00
10294;DHT22;5192;50.328;7.610;2022-08-21T17:14:02;27.60;1.00
10294;DHT22;5192;50.328;7.610;2022-08-21T17:16:29;27.50;1.00
10294;DHT22;5192;50.328;7.610;2022-08-21T17:18:54;27.40;1.00
10294;DHT22;5192;50.328;7.610;2022-08-21T17:21:21;27.30;1.00
10294;DHT22;5192;50.328;7.610;2022-08-21T17:23:48;27.20;1.00
10294;DHT22;5192;50.328;7.610;2022-08-21T17:26:14;27.10;1.00
10294;DHT22;5192;50.328;7.610;2022-08-21T17:28:46;27.00;1.00
10294;DHT22;5192;50.328;7.610;2022-08-21T17:31:12;26.90;1.00
10294;DHT22;5192;50.328;7.610;2022-08-21T17:33:42;26.80;1.00
10294;DHT22;5192;50.328;7.610;2022-08-21T17:36:22;26.70;1.00
10294;DHT22;5192;50.328;7.610;2022-08-21T17:38:48;26.60;1.00
10294;DHT22;5192;50.328;7.610;2022-08-21T17:41:14;26.50;1.00
10294;DHT22;5192;50.328;7.610;2022-08-21T17:43:42;26.50;1.00
10294;DHT22;5192;50.328;7.610;2022-08-21T17:46:18;26.50;1.00
10294;DHT22;5192;50.328;7.610;2022-08-21T17:48:49;26.40;1.00
10294;DHT22;5192;50.328;7.610;2022-08-21T17:51:17;26.30;1.00
10294;DHT22;5192;50.328;7.610;2022-08-21T17:53:43;26.30;1.00
10294;DHT22;5192;50.328;7.610;2022-08-21T17:56:09;26.10;1.00